Time;durP1;ratioP1;P1;durP2;ratioP2;P2;SDS_P1;SDS_P2;PMS_P1;PMS_P2;Temp;Humidity;BMP_temperature;BMP_pressure;BME280_temperature;BME280_humidity;BME280_pressure;Samples;Min_cycle;Max_cycle;Signal;HPM_P1;HPM_P2
2021/06/03 00:00:15;;;;;;;8.00;5.13;;;18.70;1.00;;;;;;5056650;28;20494;-69
2021/06/03 00:02:43;;;;;;;5.73;5.03;;;18.60;1.00;;;;;;5056497;28;20629;-69
2021/06/03 00:05:10;;;;;;;5.30;4.40;;;18.60;1.00;;;;;;5056912;28;20459;-69
2021/06/03 00:07:36;;;;;;;5.80;5.33;;;18.60;1.00;;;;;;5056776;28;20557;-69
2021/06/03 00:10:06;;;;;;;4.83;4.50;;;18.60;1.00;;;;;;5056697;28;20486;-69
2021/06/03 00:12:32;;;;;;;5.57;5.07;;;18.60;1.00;;;;;;5057009;28;20459;-69
2021/06/03 00:14:58;;;;;;;5.53;5.03;;;18.50;1.00;;;;;;5056997;28;20466;-69
2021/06/03 00:17:25;;;;;;;5.03;4.60;;;18.50;1.00;;;;;;5056606;28;20459;-69
2021/06/03 00:19:52;;;;;;;5.83;5.33;;;18.50;1.00;;;;;;5057022;28;20872;-69
2021/06/03 00:22:19;;;;;;;7.10;5.97;;;18.40;1.00;;;;;;5056445;28;20455;-69
2021/06/03 00:24:45;;;;;;;6.40;5.60;;;18.30;1.00;;;;;;5056621;28;20459;-69
2021/06/03 00:27:12;;;;;;;7.70;4.53;;;18.30;1.00;;;;;;5056612;28;20470;-69
2021/06/03 00:29:38;;;;;;;5.73;5.13;;;18.30;1.00;;;;;;5056606;28;20482;-69
2021/06/03 00:32:05;;;;;;;5.77;5.27;;;18.20;1.00;;;;;;5056545;28;20455;-69
2021/06/03 00:34:32;;;;;;;5.90;5.40;;;18.20;1.00;;;;;;5056294;28;20479;-69
2021/06/03 00:37:00;;;;;;;5.87;5.30;;;18.20;1.00;;;;;;5056522;28;20458;-69
2021/06/03 00:39:26;;;;;;;6.40;5.03;;;18.10;1.00;;;;;;5056093;28;20475;-69
2021/06/03 00:41:55;;;;;;;6.63;5.10;;;18.10;1.00;;;;;;5055860;28;20470;-69
2021/06/03 00:44:22;;;;;;;5.67;5.17;;;18.10;1.00;;;;;;5055990;28;20467;-69
2021/06/03 00:46:48;;;;;;;5.90;4.90;;;18.10;1.00;;;;;;5056105;28;20556;-69
2021/06/03 00:49:14;;;;;;;5.37;4.87;;;18.10;1.00;;;;;;5055755;28;20462;-69
2021/06/03 00:51:40;;;;;;;5.70;5.20;;;18.00;1.00;;;;;;5055999;28;20470;-69
2021/06/03 00:54:08;;;;;;;5.90;5.40;;;18.00;1.00;;;;;;5055771;28;20455;-69
2021/06/03 00:56:37;;;;;;;6.60;5.30;;;18.00;1.00;;;;;;5055551;28;20926;-69
2021/06/03 00:59:03;;;;;;;5.73;5.23;;;17.90;1.00;;;;;;5055776;28;20485;-69
2021/06/03 01:01:30;;;;;;;9.03;5.67;;;17.90;1.00;;;;;;5056358;28;20512;-69
2021/06/03 01:03:58;;;;;;;5.87;5.37;;;17.80;1.00;;;;;;5055223;28;20562;-70
2021/06/03 01:06:25;;;;;;;6.37;5.37;;;17.80;1.00;;;;;;5055505;28;20551;-69
2021/06/03 01:08:57;;;;;;;5.30;4.90;;;17.80;1.00;;;;;;5055213;28;20467;-69
2021/06/03 01:11:30;;;;;;;5.87;5.27;;;17.80;1.00;;;;;;5056247;28;20443;-69
2021/06/03 01:14:01;;;;;;;7.53;5.47;;;17.70;1.00;;;;;;5055571;28;20907;-70
2021/06/03 01:16:30;;;;;;;5.80;5.20;;;17.70;1.00;;;;;;5055724;28;20455;-71
2021/06/03 01:18:58;;;;;;;5.90;5.37;;;17.60;1.00;;;;;;5055155;28;20483;-70
2021/06/03 01:21:29;;;;;;;5.77;5.27;;;17.60;1.00;;;;;;5055550;28;20455;-71
2021/06/03 01:24:10;;;;;;;7.00;4.87;;;17.60;1.00;;;;;;5055317;28;20443;-70
2021/06/03 01:26:36;;;;;;;5.50;5.03;;;17.60;1.00;;;;;;5055311;28;20526;-71
2021/06/03 01:29:04;;;;;;;5.50;5.00;;;17.60;1.00;;;;;;5055543;28;20482;-71
2021/06/03 01:31:31;;;;;;;5.67;5.17;;;17.60;1.00;;;;;;5055146;28;20482;-71
2021/06/03 01:33:57;;;;;;;5.90;5.40;;;17.60;1.00;;;;;;5055021;28;20487;-71
2021/06/03 01:36:24;;;;;;;6.40;5.20;;;17.60;1.00;;;;;;5055160;28;20848;-71
2021/06/03 01:38:53;;;;;;;7.60;5.40;;;17.50;1.00;;;;;;5054953;28;20967;-71
2021/06/03 01:41:21;;;;;;;5.80;5.30;;;17.50;1.00;;;;;;5054754;28;20463;-71
2021/06/03 01:43:48;;;;;;;5.57;5.07;;;17.50;1.00;;;;;;5055105;28;20459;-71
2021/06/03 01:46:15;;;;;;;5.67;5.10;;;17.50;1.00;;;;;;5054687;28;20467;-71
2021/06/03 01:48:42;;;;;;;6.17;5.57;;;17.50;1.00;;;;;;5055261;28;20455;-71
2021/06/03 01:51:11;;;;;;;6.60;5.40;;;17.50;1.00;;;;;;5054943;28;20463;-71
2021/06/03 01:53:40;;;;;;;7.80;5.43;;;17.50;1.00;;;;;;5054632;28;20516;-71
2021/06/03 01:56:09;;;;;;;5.97;5.20;;;17.50;1.00;;;;;;5055058;28;20548;-71
2021/06/03 01:58:37;;;;;;;5.80;5.30;;;17.40;1.00;;;;;;5054744;28;20952;-71
2021/06/03 02:01:04;;;;;;;6.00;5.03;;;17.40;1.00;;;;;;5054601;28;20981;-71
2021/06/03 02:03:30;;;;;;;5.20;4.70;;;17.40;1.00;;;;;;5054809;28;20932;-71
2021/06/03 02:05:56;;;;;;;8.50;5.33;;;17.40;1.00;;;;;;5054636;28;20996;-71
2021/06/03 02:08:23;;;;;;;5.73;5.00;;;17.30;1.00;;;;;;5054537;28;20451;-71
2021/06/03 02:10:50;;;;;;;6.50;5.37;;;17.30;1.00;;;;;;5055024;28;20459;-71
2021/06/03 02:13:19;;;;;;;5.70;5.20;;;17.30;1.00;;;;;;5055023;28;20459;-71
2021/06/03 02:15:54;;;;;;;5.90;5.40;;;17.20;1.00;;;;;;5054880;28;20477;-71
2021/06/03 02:18:24;;;;;;;5.70;5.20;;;17.20;1.00;;;;;;5054738;28;20482;-71
2021/06/03 02:20:52;;;;;;;6.10;4.97;;;17.20;1.00;;;;;;5055731;28;20798;-71
2021/06/03 02:23:19;;;;;;;5.93;5.43;;;17.10;1.00;;;;;;5054445;28;21030;-71
2021/06/03 02:25:46;;;;;;;6.63;6.00;;;17.10;1.00;;;;;;5054284;28;20455;-70
2021/06/03 02:28:14;;;;;;;5.17;4.67;;;17.10;1.00;;;;;;5054858;28;20517;-71
2021/06/03 02:30:41;;;;;;;5.33;4.90;;;17.10;1.00;;;;;;5054486;28;20520;-70
2021/06/03 02:33:08;;;;;;;5.57;5.07;;;17.00;1.00;;;;;;5054221;28;20458;-70
2021/06/03 02:35:35;;;;;;;7.10;6.20;;;17.00;1.00;;;;;;5054339;28;20469;-70
2021/06/03 02:38:01;;;;;;;5.87;5.27;;;17.00;1.00;;;;;;5054545;28;20486;-71
2021/06/03 02:40:30;;;;;;;6.00;5.50;;;17.00;1.00;;;;;;5053946;28;20911;-71
2021/06/03 02:42:58;;;;;;;7.33;5.30;;;17.00;1.00;;;;;;5054471;28;20463;-71
2021/06/03 02:45:27;;;;;;;5.70;5.20;;;16.90;1.00;;;;;;5054753;28;20785;-71
2021/06/03 02:47:54;;;;;;;6.07;5.40;;;16.90;1.00;;;;;;5053960;28;20923;-71
2021/06/03 02:50:24;;;;;;;5.80;5.30;;;16.90;1.00;;;;;;5054481;28;20467;-71
2021/06/03 02:52:50;;;;;;;6.30;5.43;;;16.90;1.00;;;;;;5055315;28;20832;-71
2021/06/03 02:55:19;;;;;;;5.93;5.37;;;16.90;1.00;;;;;;5057144;28;20455;-71
2021/06/03 02:57:46;;;;;;;7.43;4.90;;;16.80;1.00;;;;;;5057981;28;20459;-71
2021/06/03 03:00:15;;;;;;;6.17;5.67;;;16.80;1.00;;;;;;5057887;28;20463;-69
2021/06/03 03:02:42;;;;;;;7.10;5.80;;;16.80;1.00;;;;;;5058175;28;20544;-70
2021/06/03 03:05:09;;;;;;;6.53;5.87;;;16.80;1.00;;;;;;5057984;28;20778;-69
2021/06/03 03:07:37;;;;;;;6.47;5.57;;;16.80;1.00;;;;;;5057875;28;20490;-69
2021/06/03 03:10:07;;;;;;;6.50;5.90;;;16.80;1.00;;;;;;5057753;28;20470;-69
2021/06/03 03:12:33;;;;;;;5.97;5.47;;;16.80;1.00;;;;;;5058113;28;20787;-70
2021/06/03 03:15:00;;;;;;;6.37;5.77;;;16.80;1.00;;;;;;5057539;28;20855;-70
2021/06/03 03:17:26;;;;;;;8.27;6.50;;;16.80;1.00;;;;;;5058606;28;20463;-70
2021/06/03 03:19:52;;;;;;;6.17;5.60;;;16.80;1.00;;;;;;5058063;28;20482;-70
2021/06/03 03:22:18;;;;;;;8.17;6.33;;;16.80;1.00;;;;;;5057403;28;21055;-70
2021/06/03 03:24:46;;;;;;;7.13;5.53;;;16.70;1.00;;;;;;5057867;28;20459;-69
2021/06/03 03:27:12;;;;;;;6.23;5.63;;;16.80;1.00;;;;;;5057231;28;20797;-70
2021/06/03 03:29:39;;;;;;;11.30;6.37;;;16.80;1.00;;;;;;5057160;28;20462;-70
2021/06/03 03:32:06;;;;;;;7.17;6.47;;;16.70;1.00;;;;;;5057439;28;20494;-70
2021/06/03 03:34:33;;;;;;;8.30;5.87;;;16.80;1.00;;;;;;5057374;28;20550;-70
2021/06/03 03:36:59;;;;;;;5.73;5.23;;;16.80;1.00;;;;;;5056927;28;20463;-70
2021/06/03 03:39:25;;;;;;;6.80;5.50;;;16.80;1.00;;;;;;5056827;28;20501;-70
2021/06/03 03:41:53;;;;;;;6.10;5.50;;;16.80;1.00;;;;;;5057342;28;20459;-71
2021/06/03 03:44:20;;;;;;;5.93;5.33;;;16.80;1.00;;;;;;5057003;28;20939;-70
2021/06/03 03:46:46;;;;;;;8.17;5.47;;;16.80;1.00;;;;;;5056865;28;20463;-71
2021/06/03 03:49:12;;;;;;;6.87;5.10;;;16.80;1.00;;;;;;5056998;28;20455;-70
2021/06/03 03:51:38;;;;;;;6.63;5.53;;;16.80;1.00;;;;;;5056643;28;20459;-71
2021/06/03 03:54:05;;;;;;;7.47;5.40;;;16.80;1.00;;;;;;5056882;28;20455;-71
2021/06/03 03:56:31;;;;;;;9.17;6.13;;;16.80;1.00;;;;;;5057062;28;20462;-71
2021/06/03 03:58:59;;;;;;;9.40;5.53;;;16.80;1.00;;;;;;5057334;28;20479;-71
2021/06/03 04:01:28;;;;;;;7.67;5.73;;;16.80;1.00;;;;;;5057824;28;20459;-71
2021/06/03 04:03:54;;;;;;;6.43;5.63;;;16.90;1.00;;;;;;5057303;28;20549;-71
2021/06/03 04:06:21;;;;;;;5.87;5.37;;;16.90;1.00;;;;;;5056580;28;20532;-71
2021/06/03 04:08:47;;;;;;;6.90;6.30;;;16.90;1.00;;;;;;5056846;28;20481;-71
2021/06/03 04:11:13;;;;;;;6.30;5.70;;;16.90;1.00;;;;;;5056915;28;20525;-71
2021/06/03 04:13:39;;;;;;;5.83;5.03;;;16.90;1.00;;;;;;5056168;28;20934;-71
2021/06/03 04:16:07;;;;;;;7.50;5.93;;;16.90;1.00;;;;;;5057159;28;20455;-70
2021/06/03 04:18:33;;;;;;;5.70;5.20;;;17.00;1.00;;;;;;5056421;28;20841;-72
2021/06/03 04:21:00;;;;;;;5.60;5.07;;;16.90;1.00;;;;;;5057015;28;20532;-70
2021/06/03 04:23:26;;;;;;;8.50;5.60;;;17.00;1.00;;;;;;5056470;28;20466;-70
2021/06/03 04:25:52;;;;;;;7.50;5.93;;;17.00;1.00;;;;;;5056458;28;20459;-70
2021/06/03 04:28:19;;;;;;;5.93;5.37;;;17.00;1.00;;;;;;5056376;28;20466;-70
2021/06/03 04:30:45;;;;;;;7.07;5.67;;;17.10;1.00;;;;;;5056647;28;20470;-70
2021/06/03 04:33:15;;;;;;;7.67;6.23;;;17.10;1.00;;;;;;5056297;28;20544;-70
2021/06/03 04:35:42;;;;;;;6.40;5.80;;;17.20;1.00;;;;;;5056606;28;20803;-70
2021/06/03 04:38:08;;;;;;;7.50;5.23;;;17.20;1.00;;;;;;5056162;28;20795;-70
2021/06/03 04:40:34;;;;;;;6.30;5.70;;;17.20;1.00;;;;;;5055742;28;20550;-69
2021/06/03 04:43:01;;;;;;;6.93;5.23;;;17.30;1.00;;;;;;5056665;28;20520;-70
2021/06/03 04:45:27;;;;;;;7.13;6.40;;;17.30;1.00;;;;;;5056059;28;20459;-70
2021/06/03 04:47:53;;;;;;;5.77;5.23;;;17.30;1.00;;;;;;5055901;28;20455;-70
2021/06/03 04:50:22;;;;;;;6.40;5.80;;;17.40;1.00;;;;;;5055948;28;20473;-69
2021/06/03 04:52:49;;;;;;;6.73;4.97;;;17.40;1.00;;;;;;5055954;28;20459;-69
2021/06/03 04:55:19;;;;;;;7.23;5.50;;;17.50;1.00;;;;;;5055539;28;20486;-71
2021/06/03 04:57:45;;;;;;;7.77;6.23;;;17.50;1.00;;;;;;5055727;28;20460;-69
2021/06/03 05:00:15;;;;;;;6.10;5.60;;;17.60;1.00;;;;;;5055737;28;20479;-70
2021/06/03 05:02:42;;;;;;;6.03;5.40;;;17.60;1.00;;;;;;5055632;28;20520;-70
2021/06/03 05:05:11;;;;;;;5.47;4.97;;;17.70;1.00;;;;;;5056005;28;20455;-69
2021/06/03 05:07:39;;;;;;;6.20;5.60;;;17.70;1.00;;;;;;5055463;28;20466;-70
2021/06/03 05:10:07;;;;;;;7.27;5.83;;;17.80;1.00;;;;;;5055663;28;20455;-71
2021/06/03 05:12:33;;;;;;;7.70;5.00;;;17.90;1.00;;;;;;5055366;28;20458;-71
2021/06/03 05:15:00;;;;;;;7.63;6.33;;;17.90;1.00;;;;;;5055340;28;20466;-70
2021/06/03 05:17:26;;;;;;;6.27;5.63;;;17.90;1.00;;;;;;5054529;28;20466;-71
2021/06/03 05:19:52;;;;;;;5.50;5.00;;;18.00;1.00;;;;;;5055478;28;20552;-70
2021/06/03 05:22:18;;;;;;;9.47;5.87;;;18.00;1.00;;;;;;5055223;28;20459;-70
2021/06/03 05:24:46;;;;;;;9.93;6.00;;;18.10;1.00;;;;;;5055484;28;20481;-70
2021/06/03 05:27:12;;;;;;;12.37;5.97;;;18.10;1.00;;;;;;5055336;28;20451;-70
2021/06/03 05:29:38;;;;;;;8.23;5.90;;;18.20;1.00;;;;;;5055374;28;20458;-69
2021/06/03 05:32:05;;;;;;;5.37;4.87;;;18.20;1.00;;;;;;5054864;28;20467;-70
2021/06/03 05:34:31;;;;;;;7.13;5.47;;;18.30;1.00;;;;;;5055055;28;20804;-70
2021/06/03 05:36:58;;;;;;;5.70;5.10;;;18.40;1.00;;;;;;5054223;28;20435;-70
2021/06/03 05:39:25;;;;;;;6.90;5.77;;;18.40;1.00;;;;;;5055143;28;20511;-74
2021/06/03 05:41:52;;;;;;;5.30;4.80;;;18.40;1.00;;;;;;5054914;28;20492;-70
2021/06/03 05:44:19;;;;;;;9.27;5.20;;;18.50;1.00;;;;;;5055010;28;20470;-70
2021/06/03 05:46:45;;;;;;;11.47;5.20;;;18.50;1.00;;;;;;5054851;28;20465;-70
2021/06/03 05:49:11;;;;;;;6.20;5.00;;;18.60;1.00;;;;;;5055258;28;20795;-70
2021/06/03 05:51:39;;;;;;;7.43;5.30;;;18.60;1.00;;;;;;5054728;28;20976;-70
2021/06/03 05:54:06;;;;;;;6.00;5.03;;;18.70;1.00;;;;;;5054789;28;20524;-70
2021/06/03 05:56:32;;;;;;;10.83;5.50;;;18.70;1.00;;;;;;5055012;28;20455;-70
2021/06/03 05:59:00;;;;;;;5.40;4.90;;;18.80;1.00;;;;;;5055040;28;20478;-70
2021/06/03 06:01:28;;;;;;;4.90;4.50;;;18.80;1.00;;;;;;5055194;28;20785;-71
2021/06/03 06:04:08;;;;;;;5.60;4.80;;;18.90;1.00;;;;;;5054969;28;20463;-70
2021/06/03 06:06:34;;;;;;;6.43;4.93;;;18.90;1.00;;;;;;5055168;28;20454;-70
2021/06/03 06:09:02;;;;;;;6.30;5.70;;;19.00;1.00;;;;;;5056008;28;20451;-69
2021/06/03 06:11:30;;;;;;;8.40;5.30;;;19.00;1.00;;;;;;5055735;28;20267;-69
2021/06/03 06:13:57;;;;;;;6.83;4.83;;;19.10;1.00;;;;;;5055777;28;20482;-70
2021/06/03 06:16:24;;;;;;;9.23;5.47;;;19.10;1.00;;;;;;5055831;28;20455;-70
2021/06/03 06:18:51;;;;;;;6.10;5.50;;;19.20;1.00;;;;;;5054664;28;20487;-70
2021/06/03 06:21:19;;;;;;;6.93;5.43;;;19.20;1.00;;;;;;5054947;28;20459;-70
2021/06/03 06:23:46;;;;;;;7.30;4.47;;;19.20;1.00;;;;;;5054606;28;20949;-71
2021/06/03 06:26:15;;;;;;;6.67;4.93;;;19.30;1.00;;;;;;5054898;28;20459;-70
2021/06/03 06:28:41;;;;;;;13.67;5.20;;;19.40;1.00;;;;;;5056863;28;20534;-69
2021/06/03 06:31:08;;;;;;;5.50;4.80;;;19.50;1.00;;;;;;5058430;28;20455;-69
2021/06/03 06:33:37;;;;;;;5.07;4.63;;;19.60;1.00;;;;;;5058452;28;20510;-69
2021/06/03 06:36:05;;;;;;;7.00;4.37;;;19.60;1.00;;;;;;5058248;28;20458;-70
2021/06/03 06:38:31;;;;;;;5.37;4.87;;;19.70;1.00;;;;;;5058344;28;20485;-69
2021/06/03 06:40:58;;;;;;;7.30;4.30;;;19.80;1.00;;;;;;5058489;28;20455;-69
2021/06/03 06:43:24;;;;;;;6.23;4.60;;;19.80;1.00;;;;;;5058440;28;20451;-69
2021/06/03 06:45:51;;;;;;;5.67;5.03;;;19.90;1.00;;;;;;5058178;28;20455;-70
2021/06/03 06:48:18;;;;;;;4.97;4.40;;;20.00;1.00;;;;;;5058512;28;20459;-70
2021/06/03 06:50:47;;;;;;;5.47;4.37;;;20.10;1.00;;;;;;5058467;28;20834;-70
2021/06/03 06:53:14;;;;;;;5.37;4.87;;;20.10;1.00;;;;;;5058390;28;20964;-70
2021/06/03 06:55:41;;;;;;;5.30;4.70;;;20.20;1.00;;;;;;5058252;28;20458;-70
2021/06/03 06:58:08;;;;;;;4.80;4.23;;;20.30;1.00;;;;;;5058707;28;20459;-69
2021/06/03 07:00:37;;;;;;;8.10;4.77;;;20.40;1.00;;;;;;5057712;28;20876;-69
2021/06/03 07:03:03;;;;;;;4.90;4.30;;;20.40;1.00;;;;;;5058277;28;20802;-69
2021/06/03 07:05:30;;;;;;;5.40;4.00;;;20.50;1.00;;;;;;5058435;28;20459;-69
2021/06/03 07:07:57;;;;;;;5.47;4.40;;;20.60;1.00;;;;;;5057656;28;20473;-69
2021/06/03 07:10:23;;;;;;;7.93;4.73;;;20.60;1.00;;;;;;5057513;28;20455;-69
2021/06/03 07:12:51;;;;;;;4.87;4.10;;;20.70;1.00;;;;;;5058061;28;20459;-69
2021/06/03 07:15:17;;;;;;;6.20;5.17;;;20.80;1.00;;;;;;5058264;28;20455;-70
2021/06/03 07:17:44;;;;;;;7.73;4.50;;;20.90;1.00;;;;;;5057761;28;20473;-70
2021/06/03 07:20:13;;;;;;;5.60;4.00;;;21.00;1.00;;;;;;5058178;28;20478;-70
2021/06/03 07:22:40;;;;;;;5.30;4.43;;;21.10;1.00;;;;;;5057672;28;20463;-71
2021/06/03 07:25:10;;;;;;;6.43;4.57;;;21.10;1.00;;;;;;5058070;28;20459;-69
2021/06/03 07:27:38;;;;;;;5.97;4.53;;;21.20;1.00;;;;;;5058058;28;20451;-70
2021/06/03 07:30:07;;;;;;;4.60;4.20;;;21.30;1.00;;;;;;5057879;28;20447;-69
2021/06/03 07:32:33;;;;;;;8.17;4.70;;;21.30;1.00;;;;;;5057244;28;20508;-69
2021/06/03 07:35:00;;;;;;;5.87;4.93;;;21.40;1.00;;;;;;5057144;28;20557;-70
2021/06/03 07:37:28;;;;;;;7.83;5.10;;;21.50;1.00;;;;;;5057540;28;20451;-70
2021/06/03 07:39:56;;;;;;;4.53;4.10;;;21.60;1.00;;;;;;5056705;28;20771;-69
2021/06/03 07:42:24;;;;;;;7.23;4.57;;;21.60;1.00;;;;;;5056997;28;20458;-69
2021/06/03 07:44:50;;;;;;;7.67;3.87;;;21.70;1.00;;;;;;5057667;28;20460;-69
2021/06/03 07:47:16;;;;;;;8.60;5.77;;;21.80;1.00;;;;;;5057573;28;20843;-69
2021/06/03 07:49:43;;;;;;;9.03;5.83;;;21.90;1.00;;;;;;5057145;28;20451;-69
2021/06/03 07:52:09;;;;;;;7.80;5.07;;;21.90;1.00;;;;;;5058018;28;20493;-69
2021/06/03 07:54:35;;;;;;;8.83;4.33;;;22.00;1.00;;;;;;5056839;28;20524;-70
2021/06/03 07:57:02;;;;;;;5.87;4.10;;;22.00;1.00;;;;;;5057251;28;20788;-69
2021/06/03 07:59:30;;;;;;;6.83;4.23;;;22.10;1.00;;;;;;5056304;28;20975;-69
2021/06/03 08:01:56;;;;;;;4.93;4.23;;;22.10;1.00;;;;;;5056971;28;20455;-69
2021/06/03 08:04:22;;;;;;;5.50;4.07;;;22.20;1.00;;;;;;5056249;28;20512;-69
2021/06/03 08:06:49;;;;;;;6.13;5.10;;;22.30;1.00;;;;;;5056656;28;20957;-69
2021/06/03 08:09:15;;;;;;;5.63;5.13;;;22.30;1.00;;;;;;5056566;28;20474;-69
2021/06/03 08:11:44;;;;;;;10.17;6.33;;;22.40;1.00;;;;;;5056686;28;20455;-69
2021/06/03 08:14:10;;;;;;;6.33;4.93;;;22.40;1.00;;;;;;5056819;28;20469;-68
2021/06/03 08:16:38;;;;;;;4.87;3.77;;;22.50;1.00;;;;;;5056418;28;20513;-69
2021/06/03 08:19:05;;;;;;;4.43;3.93;;;22.60;1.00;;;;;;5056313;28;20479;-69
2021/06/03 08:21:33;;;;;;;4.30;4.00;;;22.70;1.00;;;;;;5056673;28;20521;-69
2021/06/03 08:23:59;;;;;;;3.73;3.43;;;22.70;1.00;;;;;;5056718;28;20892;-70
2021/06/03 08:26:28;;;;;;;7.37;4.10;;;22.90;1.00;;;;;;5056164;28;20456;-70
2021/06/03 08:28:55;;;;;;;5.20;4.30;;;22.90;1.00;;;;;;5056031;28;20511;-70
2021/06/03 08:31:21;;;;;;;5.70;4.40;;;23.00;1.00;;;;;;5056099;28;20485;-69
2021/06/03 08:33:49;;;;;;;8.63;4.63;;;23.10;1.00;;;;;;5056152;28;20487;-70
2021/06/03 08:36:15;;;;;;;5.40;4.47;;;23.20;1.00;;;;;;5056703;28;20454;-69
2021/06/03 08:38:41;;;;;;;6.43;4.90;;;23.30;1.00;;;;;;5056286;28;20542;-68
2021/06/03 08:41:08;;;;;;;5.07;4.40;;;23.40;1.00;;;;;;5055518;28;20466;-70
2021/06/03 08:43:34;;;;;;;4.70;4.27;;;23.50;1.00;;;;;;5055836;28;20526;-69
2021/06/03 08:46:04;;;;;;;6.07;4.40;;;23.60;1.00;;;;;;5056172;28;20455;-69
2021/06/03 08:48:31;;;;;;;4.33;3.77;;;23.70;1.00;;;;;;5055727;28;20472;-69
2021/06/03 08:51:02;;;;;;;5.30;3.93;;;23.70;1.00;;;;;;5055005;28;20524;-69
2021/06/03 08:53:29;;;;;;;4.27;3.87;;;23.80;1.00;;;;;;5055167;28;20892;-69
2021/06/03 08:56:15;;;;;;;4.40;3.90;;;23.90;1.00;;;;;;5055623;28;20460;-69
2021/06/03 08:58:42;;;;;;;4.87;4.47;;;24.00;1.00;;;;;;5055629;28;20474;-69
2021/06/03 09:01:09;;;;;;;4.17;3.77;;;24.00;1.00;;;;;;5055423;28;20459;-69
2021/06/03 09:03:36;;;;;;;4.20;3.90;;;24.10;1.00;;;;;;5056147;28;20455;-69
2021/06/03 09:06:04;;;;;;;5.10;4.17;;;24.20;1.00;;;;;;5055603;28;20455;-69
2021/06/03 09:08:32;;;;;;;4.27;3.97;;;24.20;1.00;;;;;;5055382;28;20474;-69
2021/06/03 09:11:00;;;;;;;6.40;3.40;;;24.30;1.00;;;;;;5055784;28;20463;-70
2021/06/03 09:13:30;;;;;;;4.30;3.87;;;24.40;1.00;;;;;;5055214;28;20489;-70
2021/06/03 09:15:58;;;;;;;10.73;4.00;;;24.40;1.00;;;;;;5054839;28;20470;-70
2021/06/03 09:18:30;;;;;;;7.80;4.70;;;24.50;1.00;;;;;;5054970;28;20451;-70
2021/06/03 09:21:06;;;;;;;3.73;3.43;;;24.60;1.00;;;;;;5055335;28;20459;-69
2021/06/03 09:23:34;;;;;;;4.13;3.50;;;24.60;1.00;;;;;;5055558;28;20442;-70
2021/06/03 09:26:06;;;;;;;4.60;3.47;;;24.70;1.00;;;;;;5055049;28;20520;-69
2021/06/03 09:28:34;;;;;;;4.53;4.13;;;24.70;1.00;;;;;;5054920;28;20443;-70
2021/06/03 09:31:20;;;;;;;3.90;3.50;;;24.80;1.00;;;;;;5055178;28;20767;-69
2021/06/03 09:34:00;;;;;;;8.87;4.17;;;24.90;1.00;;;;;;5054879;28;20493;-69
2021/06/03 09:36:33;;;;;;;3.77;3.47;;;24.90;1.00;;;;;;5054982;28;20434;-69
2021/06/03 09:39:25;;;;;;;3.63;3.33;;;25.00;1.00;;;;;;5054987;28;20479;-69
2021/06/03 09:41:55;;;;;;;4.90;3.60;;;25.10;1.00;;;;;;5054990;28;20505;-71
2021/06/03 09:44:28;;;;;;;3.63;3.33;;;25.20;1.00;;;;;;5055321;28;20455;-69
2021/06/03 09:46:56;;;;;;;4.13;3.23;;;25.30;1.00;;;;;;5055016;28;20500;-69
2021/06/03 09:49:25;;;;;;;4.53;3.40;;;25.30;1.00;;;;;;5055297;28;20447;-70
2021/06/03 09:51:54;;;;;;;6.43;3.20;;;25.40;1.00;;;;;;5054731;28;20942;-69
2021/06/03 09:54:21;;;;;;;3.87;3.57;;;25.50;1.00;;;;;;5054407;28;20511;-69
2021/06/03 09:56:52;;;;;;;5.23;3.57;;;25.50;1.00;;;;;;5054910;28;20768;-69
2021/06/03 09:59:21;;;;;;;5.50;3.40;;;25.60;1.00;;;;;;5054661;28;20471;-69
2021/06/03 10:02:07;;;;;;;6.27;3.63;;;25.60;1.00;;;;;;5054766;28;20521;-69
2021/06/03 10:04:43;;;;;;;4.30;3.03;;;25.70;1.00;;;;;;5058335;28;20435;-69
2021/06/03 10:07:19;;;;;;;4.20;3.80;;;25.80;1.00;;;;;;5058516;28;20438;-69
2021/06/03 10:09:57;;;;;;;8.70;5.20;;;25.80;1.00;;;;;;5059498;28;20435;-70
2021/06/03 10:12:32;;;;;;;3.70;3.40;;;25.80;1.00;;;;;;5058974;28;20439;-69
2021/06/03 10:15:00;;;;;;;3.77;3.47;;;25.80;1.00;;;;;;5058213;28;20438;-69
2021/06/03 10:17:28;;;;;;;3.53;3.23;;;25.90;1.00;;;;;;5058893;28;20459;-69
2021/06/03 10:19:56;;;;;;;2.80;2.60;;;26.00;1.00;;;;;;5058583;28;20479;-69
2021/06/03 10:22:24;;;;;;;4.57;3.43;;;26.00;1.00;;;;;;5058525;28;20459;-70
2021/06/03 10:25:07;;;;;;;4.80;3.43;;;26.00;1.00;;;;;;5058465;28;20459;-70
2021/06/03 10:27:37;;;;;;;4.87;3.20;;;26.10;1.00;;;;;;5058367;28;20466;-70
2021/06/03 10:30:11;;;;;;;3.30;3.00;;;26.10;1.00;;;;;;5058564;28;20451;-70
2021/06/03 10:32:39;;;;;;;3.40;3.10;;;26.10;1.00;;;;;;5058607;28;20485;-70
2021/06/03 10:35:09;;;;;;;3.93;3.53;;;26.20;1.00;;;;;;5058282;28;20478;-70
2021/06/03 10:37:35;;;;;;;7.40;3.53;;;26.20;1.00;;;;;;5058420;28;20459;-70
2021/06/03 10:40:03;;;;;;;4.20;3.20;;;26.30;1.00;;;;;;5058964;28;21002;-70
2021/06/03 10:42:29;;;;;;;3.43;3.13;;;26.40;1.00;;;;;;5058882;28;20520;-70
2021/06/03 10:44:57;;;;;;;4.87;3.20;;;26.40;1.00;;;;;;5058002;28;20458;-70
2021/06/03 10:47:24;;;;;;;4.03;3.63;;;26.40;1.00;;;;;;5058497;28;20778;-69
2021/06/03 10:49:52;;;;;;;6.43;3.23;;;26.50;1.00;;;;;;5059501;28;20730;-69
2021/06/03 10:52:21;;;;;;;4.00;3.33;;;26.50;1.00;;;;;;5058444;28;20463;-68
2021/06/03 10:54:50;;;;;;;4.60;3.20;;;26.50;1.00;;;;;;5058798;28;20470;-69
2021/06/03 10:57:19;;;;;;;6.00;3.67;;;26.50;1.00;;;;;;5058117;28;20459;-68
2021/06/03 10:59:46;;;;;;;4.40;3.17;;;26.60;1.00;;;;;;5057880;28;20814;-69
2021/06/03 11:02:15;;;;;;;4.77;3.23;;;26.80;1.00;;;;;;5058181;28;20488;-69
2021/06/03 11:04:44;;;;;;;5.47;3.43;;;26.90;1.00;;;;;;5058114;28;20462;-69
2021/06/03 11:07:11;;;;;;;4.47;3.03;;;27.10;1.00;;;;;;5058074;28;20474;-69
2021/06/03 11:09:39;;;;;;;3.30;3.00;;;27.20;1.00;;;;;;5057920;28;20455;-68
2021/06/03 11:12:19;;;;;;;3.47;3.20;;;27.30;1.00;;;;;;5057741;28;20463;-69
2021/06/03 11:15:05;;;;;;;3.17;2.87;;;27.50;1.00;;;;;;5056596;28;20454;-69
2021/06/03 11:17:57;;;;;;;3.23;2.80;;;27.70;1.00;;;;;;5057349;28;20771;-69
2021/06/03 11:20:41;;;;;;;3.43;2.80;;;28.40;1.00;;;;;;5057217;28;20467;-69
2021/06/03 11:23:57;;;;;;;3.13;2.83;;;29.30;1.00;;;;;;5057381;28;20439;-69
2021/06/03 11:26:51;;;;;;;5.23;2.80;;;30.50;1.00;;;;;;5058013;28;20482;-69
2021/06/03 11:29:20;;;;;;;3.47;3.17;;;31.90;1.00;;;;;;5057693;28;20443;-69
2021/06/03 11:31:47;;;;;;;3.40;3.10;;;33.00;1.00;;;;;;5057645;28;20455;-69
2021/06/03 11:34:17;;;;;;;3.03;2.80;;;34.00;1.00;;;;;;5056876;28;20479;-69
2021/06/03 11:36:45;;;;;;;2.60;2.40;;;34.80;1.00;;;;;;5056724;28;20454;-68
2021/06/03 11:39:41;;;;;;;3.23;2.30;;;35.50;1.00;;;;;;5057058;28;20804;-68
2021/06/03 11:42:26;;;;;;;3.20;3.00;;;35.90;1.00;;;;;;5022674;28;20780;-69
2021/06/03 11:45:16;;;;;;;3.10;2.33;;;36.00;1.00;;;;;;5057391;28;20443;-69
2021/06/03 11:48:22;;;;;;;3.87;2.60;;;36.10;1.00;;;;;;5057362;28;20447;-69
2021/06/03 11:50:57;;;;;;;4.13;2.30;;;36.10;1.00;;;;;;5057298;28;20441;-69
2021/06/03 11:53:25;;;;;;;4.40;3.10;;;36.30;1.00;;;;;;5057075;28;20438;-69
2021/06/03 11:55:54;;;;;;;3.40;3.10;;;36.70;1.00;;;;;;5056800;28;20900;-69
2021/06/03 11:58:31;;;;;;;2.80;2.60;;;37.30;1.00;;;;;;5056873;28;20451;-68
2021/06/03 12:01:01;;;;;;;3.10;2.80;;;37.70;1.00;;;;;;5057163;28;20467;-68
2021/06/03 12:03:39;;;;;;;2.60;2.40;;;37.70;1.00;;;;;;5056894;28;20520;-68
2021/06/03 12:06:09;;;;;;;3.27;2.37;;;37.90;1.00;;;;;;5057254;28;20859;-68
2021/06/03 12:08:48;;;;;;;4.53;3.07;;;38.10;1.00;;;;;;5056408;28;20440;-68
2021/06/03 12:11:21;;;;;;;3.10;2.30;;;38.50;1.00;;;;;;5056587;28;20895;-68
2021/06/03 12:13:59;;;;;;;5.27;2.80;;;38.60;1.00;;;;;;5056104;28;20440;-68
2021/06/03 12:16:33;;;;;;;4.53;2.43;;;39.00;1.00;;;;;;5056517;28;20504;-68
2021/06/03 12:19:00;;;;;;;2.40;2.00;;;39.20;1.00;;;;;;5056896;28;20455;-68
2021/06/03 12:21:27;;;;;;;3.67;2.67;;;39.30;1.00;;;;;;5056455;28;20463;-68
2021/06/03 12:23:53;;;;;;;4.43;2.60;;;39.00;1.00;;;;;;5056589;28;20798;-69
2021/06/03 12:26:21;;;;;;;6.30;2.50;;;38.60;1.00;;;;;;5056274;28;20463;-69
2021/06/03 12:28:48;;;;;;;4.27;2.63;;;38.60;1.00;;;;;;5056434;28;20493;-69
2021/06/03 12:31:23;;;;;;;3.57;2.50;;;38.70;1.00;;;;;;5056076;28;20463;-70
2021/06/03 12:33:49;;;;;;;3.70;2.53;;;38.80;1.00;;;;;;5056224;28;20977;-69
2021/06/03 12:36:16;;;;;;;2.43;2.20;;;38.70;1.00;;;;;;5056578;28;20782;-69
2021/06/03 12:38:48;;;;;;;3.63;2.30;;;38.90;1.00;;;;;;5056696;28;20451;-69
2021/06/03 12:41:27;;;;;;;2.90;2.20;;;39.10;1.00;;;;;;5056113;28;20490;-69
2021/06/03 12:43:57;;;;;;;3.00;2.80;;;39.40;1.00;;;;;;5056054;28;20439;-69
2021/06/03 12:46:31;;;;;;;2.53;2.13;;;38.90;1.00;;;;;;5055806;28;20494;-69
2021/06/03 12:49:02;;;;;;;2.33;2.13;;;39.00;1.00;;;;;;5055969;28;20451;-68
2021/06/03 12:51:29;;;;;;;2.10;1.90;;;39.40;1.00;;;;;;5056077;28;20466;-69
2021/06/03 12:53:56;;;;;;;2.77;2.13;;;39.60;1.00;;;;;;5055889;28;20447;-68
2021/06/03 12:56:23;;;;;;;2.30;2.10;;;39.90;1.00;;;;;;5055850;28;20521;-69
2021/06/03 12:58:50;;;;;;;2.80;2.60;;;40.30;1.00;;;;;;5055822;28;20465;-69
2021/06/03 13:01:16;;;;;;;3.60;2.30;;;40.50;1.00;;;;;;5055456;28;20451;-69
2021/06/03 13:03:51;;;;;;;1.97;1.83;;;40.50;1.00;;;;;;5055813;28;20544;-69
2021/06/03 13:06:17;;;;;;;3.00;2.47;;;40.50;1.00;;;;;;5056450;28;20443;-68